• Join FlightAware (Why Join?)
  • Login
  • US Flag 
06:03AM EDT


 

Airport Tracker/Info


-or-


 

Live Flight TrackerFlight Track Log ✈ EGF4039 ✈ 01-May-2013 ✈ KALO - KORD

Flight Track Log - Related Links

Times and Time Zones

All times are in EDT time to prevent confusion due to time zone crossing. See the EGF4039 flight status page for this flight to view local times or setup timezone preferences in your user account.

Time Position Orientation Groundspeed Altitude Reporting Facility
EDT Latitude Longitude Course Direction KTS MPH feet Rate Location/Type
04:52PM 42.6061 -92.3458 97° East 246 283 5,000  Level Chicago Center
04:53PM 42.5961 -92.2522 98° East 245 282 7,200 2,460 Climbing Chicago Center
04:54PM 42.5842 -92.1492 99° East 264 304 10,100 2,160 Climbing Chicago Center
04:55PM 42.4916 -91.7740 97° East  Level FlightAware Approximate
04:55PM 42.5700 -92.0364 100° East 286 329 11,700  Level Chicago Center
04:56PM 42.4833 -91.6483 90° East  Level FlightAware Approximate
04:56PM 42.5514 -91.8806 99° East 331 381 13,800  Level Chicago Center
04:57PM 42.4732 -91.5269 97° East  Level FlightAware Approximate
04:57PM 42.5353 -91.7453 99° East 366 421 15,300  Level Chicago Center
04:58PM 42.5178 -91.6050 100° East 384 442 16,700 1,320 Climbing Chicago Center
04:59PM 42.5094 -91.4586 94° East 404 465 18,100 1,440 Climbing Chicago Center
05:00PM 42.5156 -91.2781 87° East 408 470 19,800 1,380 Climbing Chicago Center
05:01PM 42.5206 -91.1228 87° East 416 479 21,100 1,080 Climbing Chicago Center
05:02PM 42.5239 -90.9631 88° East 428 493 22,100 900 Climbing Chicago Center
05:03PM 42.5278 -90.8003 88° East 437 503 23,000 420 Climbing Chicago Center
05:04PM 42.5322 -90.5981 88° East 452 520 23,000  Level Chicago Center
05:05PM 42.5367 -90.4294 88° East 451 519 23,000  Level Chicago Center
05:06PM 42.5397 -90.2614 89° East 450 518 23,000  Level Chicago Center
05:07PM 42.5422 -90.0939 89° East 450 518 23,000  Level Chicago Center
05:08PM 42.5456 -89.8931 89° East 449 517 23,000 -660 Level Chicago Center
05:09PM 42.5489 -89.7192 88° East 447 514 21,700 -1,680 Descending Chicago Center
05:10PM 42.5514 -89.5525 89° East 446 513 19,600 -2,040 Descending Chicago Center
05:12PM 42.5542 -89.3886 89° East 439 505 17,500 -2,040 Descending Chicago Center
05:13PM 42.5558 -89.2322 89° East 423 487 15,400 -1,500 Descending Chicago Center
05:14PM 42.5500 -89.0819 93° East 407 468 14,400 -1,080 Descending Chicago Center
05:15PM 42.5058 -88.9289 111° Southeast 369 425 13,200 -1,140 Descending Chicago Center
05:16PM 42.4733 -88.8253 113° Southeast 305 351 12,100 -1,080 Descending Chicago Center
05:17PM 42.4419 -88.7219 112° Southeast 296 341 11,000 -1,140 Descending Chicago Center
05:18PM 42.4128 -88.6228 112° Southeast 286 329 9,800 -1,020 Descending Chicago Center
05:19PM 42.3836 -88.5269 112° Southeast 279 321 9,000 -780 Descending Chicago Center
05:20PM 42.3769 -88.4103 94° East 274 315 8,300 -900 Descending Chicago Center
05:21PM 42.3439 -88.3239 117° Southeast 258 297 7,200 -660 Descending Chicago Center
05:22PM 42.2883 -88.2775 148° Southeast 243 280 7,000 -480 Descending Chicago Center
05:23PM 42.2431 -88.2189 136° Southeast 228 262 6,300 -840 Descending Chicago Center
05:24PM 42.1961 -88.1664 140° Southeast 224 258 5,300 -1,020 Descending Chicago Center
05:25PM 42.1408 -88.1039 140° Southeast 219 252 4,300 -1,020 Descending Chicago Center